sensor_id;sensor_type;location;lat;lon;timestamp;temperature;humidity
8979;DHT22;4524;51.364;5.448;2023-02-11T00:01:08;7.00;99.90
8979;DHT22;4524;51.364;5.448;2023-02-11T00:03:37;6.90;99.90
8979;DHT22;4524;51.364;5.448;2023-02-11T00:06:07;6.90;99.90
8979;DHT22;4524;51.364;5.448;2023-02-11T00:08:36;6.90;99.90
8979;DHT22;4524;51.364;5.448;2023-02-11T00:11:04;7.00;99.90
8979;DHT22;4524;51.364;5.448;2023-02-11T00:13:32;6.90;99.90
8979;DHT22;4524;51.364;5.448;2023-02-11T00:16:06;6.90;99.90
8979;DHT22;4524;51.364;5.448;2023-02-11T00:18:35;6.90;99.90
8979;DHT22;4524;51.364;5.448;2023-02-11T00:21:05;6.90;99.90
8979;DHT22;4524;51.364;5.448;2023-02-11T00:23:34;6.90;99.90
8979;DHT22;4524;51.364;5.448;2023-02-11T00:26:02;6.80;99.90
8979;DHT22;4524;51.364;5.448;2023-02-11T00:28:30;6.80;99.90
8979;DHT22;4524;51.364;5.448;2023-02-11T00:30:58;6.90;99.90
8979;DHT22;4524;51.364;5.448;2023-02-11T00:33:29;6.80;99.90
8979;DHT22;4524;51.364;5.448;2023-02-11T00:35:57;6.80;99.90
8979;DHT22;4524;51.364;5.448;2023-02-11T00:38:25;6.90;99.90
8979;DHT22;4524;51.364;5.448;2023-02-11T00:40:53;6.80;99.90
8979;DHT22;4524;51.364;5.448;2023-02-11T00:43:21;6.80;99.90
8979;DHT22;4524;51.364;5.448;2023-02-11T00:45:49;6.90;99.90
8979;DHT22;4524;51.364;5.448;2023-02-11T00:48:18;6.80;99.90
8979;DHT22;4524;51.364;5.448;2023-02-11T00:50:47;6.80;99.90
8979;DHT22;4524;51.364;5.448;2023-02-11T00:53:15;6.80;99.90
8979;DHT22;4524;51.364;5.448;2023-02-11T00:55:43;6.90;99.90
8979;DHT22;4524;51.364;5.448;2023-02-11T00:58:11;6.90;99.90
8979;DHT22;4524;51.364;5.448;2023-02-11T01:00:41;7.00;99.90
8979;DHT22;4524;51.364;5.448;2023-02-11T01:03:09;7.00;99.90
8979;DHT22;4524;51.364;5.448;2023-02-11T01:05:37;7.00;99.90
8979;DHT22;4524;51.364;5.448;2023-02-11T01:08:06;7.10;99.90
8979;DHT22;4524;51.364;5.448;2023-02-11T01:10:34;7.10;99.90
8979;DHT22;4524;51.364;5.448;2023-02-11T01:13:02;7.10;99.90
8979;DHT22;4524;51.364;5.448;2023-02-11T01:15:32;7.10;99.90
8979;DHT22;4524;51.364;5.448;2023-02-11T01:18:00;7.20;99.90
8979;DHT22;4524;51.364;5.448;2023-02-11T01:20:28;7.20;99.90
8979;DHT22;4524;51.364;5.448;2023-02-11T01:22:56;7.20;99.90
8979;DHT22;4524;51.364;5.448;2023-02-11T01:25:26;7.30;99.90
8979;DHT22;4524;51.364;5.448;2023-02-11T01:27:54;7.30;99.90
8979;DHT22;4524;51.364;5.448;2023-02-11T01:30:22;7.30;99.90
8979;DHT22;4524;51.364;5.448;2023-02-11T01:32:50;7.30;99.90
8979;DHT22;4524;51.364;5.448;2023-02-11T01:35:18;7.30;99.90
8979;DHT22;4524;51.364;5.448;2023-02-11T01:37:46;7.30;99.90
8979;DHT22;4524;51.364;5.448;2023-02-11T01:40:15;7.30;99.90
8979;DHT22;4524;51.364;5.448;2023-02-11T01:42:45;7.40;99.90
8979;DHT22;4524;51.364;5.448;2023-02-11T01:45:51;7.30;99.90
8979;DHT22;4524;51.364;5.448;2023-02-11T01:48:23;7.30;99.90
8979;DHT22;4524;51.364;5.448;2023-02-11T01:50:56;7.30;99.90
8979;DHT22;4524;51.364;5.448;2023-02-11T01:53:26;7.30;99.90
8979;DHT22;4524;51.364;5.448;2023-02-11T01:56:13;7.30;99.90
8979;DHT22;4524;51.364;5.448;2023-02-11T01:59:05;7.40;99.90
8979;DHT22;4524;51.364;5.448;2023-02-11T02:01:36;7.40;99.90
8979;DHT22;4524;51.364;5.448;2023-02-11T02:04:07;7.40;99.90
8979;DHT22;4524;51.364;5.448;2023-02-11T02:06:42;7.40;99.90
8979;DHT22;4524;51.364;5.448;2023-02-11T02:09:15;7.40;99.90
8979;DHT22;4524;51.364;5.448;2023-02-11T02:11:46;7.40;99.90
8979;DHT22;4524;51.364;5.448;2023-02-11T02:14:16;7.40;99.90
8979;DHT22;4524;51.364;5.448;2023-02-11T02:16:45;7.40;99.90
8979;DHT22;4524;51.364;5.448;2023-02-11T02:22:59;7.30;99.90
8979;DHT22;4524;51.364;5.448;2023-02-11T02:25:46;7.30;99.90
8979;DHT22;4524;51.364;5.448;2023-02-11T02:28:35;7.30;99.90
8979;DHT22;4524;51.364;5.448;2023-02-11T02:31:22;7.40;99.90
8979;DHT22;4524;51.364;5.448;2023-02-11T02:33:55;7.40;99.90
8979;DHT22;4524;51.364;5.448;2023-02-11T02:36:30;7.40;99.90
8979;DHT22;4524;51.364;5.448;2023-02-11T02:39:05;7.40;99.90
8979;DHT22;4524;51.364;5.448;2023-02-11T02:41:36;7.40;99.90
8979;DHT22;4524;51.364;5.448;2023-02-11T02:44:07;7.30;99.90
8979;DHT22;4524;51.364;5.448;2023-02-11T02:46:35;7.20;99.90
8979;DHT22;4524;51.364;5.448;2023-02-11T02:49:12;7.20;99.90
8979;DHT22;4524;51.364;5.448;2023-02-11T02:55:07;7.30;99.90
8979;DHT22;4524;51.364;5.448;2023-02-11T03:00:33;7.30;99.90
8979;DHT22;4524;51.364;5.448;2023-02-11T03:03:14;7.40;99.90
8979;DHT22;4524;51.364;5.448;2023-02-11T03:05:50;7.40;99.90
8979;DHT22;4524;51.364;5.448;2023-02-11T03:08:26;7.40;99.90
8979;DHT22;4524;51.364;5.448;2023-02-11T03:10:56;7.40;99.90
8979;DHT22;4524;51.364;5.448;2023-02-11T03:13:28;7.40;99.90
8979;DHT22;4524;51.364;5.448;2023-02-11T03:16:03;7.40;99.90
8979;DHT22;4524;51.364;5.448;2023-02-11T03:18:35;7.40;99.90
8979;DHT22;4524;51.364;5.448;2023-02-11T03:21:07;7.40;99.90
8979;DHT22;4524;51.364;5.448;2023-02-11T03:23:39;7.40;99.90
8979;DHT22;4524;51.364;5.448;2023-02-11T03:26:12;7.40;99.90
8979;DHT22;4524;51.364;5.448;2023-02-11T03:28:48;7.40;99.90
8979;DHT22;4524;51.364;5.448;2023-02-11T03:31:24;7.40;99.90
8979;DHT22;4524;51.364;5.448;2023-02-11T03:33:58;7.50;99.90
8979;DHT22;4524;51.364;5.448;2023-02-11T03:36:41;7.40;99.90
8979;DHT22;4524;51.364;5.448;2023-02-11T03:39:13;7.50;99.90
8979;DHT22;4524;51.364;5.448;2023-02-11T03:41:43;7.50;99.90
8979;DHT22;4524;51.364;5.448;2023-02-11T03:44:14;7.50;99.90
8979;DHT22;4524;51.364;5.448;2023-02-11T03:46:47;7.50;99.90
8979;DHT22;4524;51.364;5.448;2023-02-11T03:49:19;7.50;99.90
8979;DHT22;4524;51.364;5.448;2023-02-11T03:51:51;7.50;99.90
8979;DHT22;4524;51.364;5.448;2023-02-11T03:54:24;7.50;99.90
8979;DHT22;4524;51.364;5.448;2023-02-11T03:56:55;7.50;99.90
8979;DHT22;4524;51.364;5.448;2023-02-11T03:59:24;7.50;99.90
8979;DHT22;4524;51.364;5.448;2023-02-11T04:01:52;7.50;99.90
8979;DHT22;4524;51.364;5.448;2023-02-11T04:04:20;7.60;99.90
8979;DHT22;4524;51.364;5.448;2023-02-11T04:06:50;7.50;99.90
8979;DHT22;4524;51.364;5.448;2023-02-11T04:09:18;7.50;99.90
8979;DHT22;4524;51.364;5.448;2023-02-11T04:11:45;7.50;99.90
8979;DHT22;4524;51.364;5.448;2023-02-11T04:14:13;7.50;99.90
8979;DHT22;4524;51.364;5.448;2023-02-11T04:16:41;7.50;99.90
8979;DHT22;4524;51.364;5.448;2023-02-11T04:19:09;7.50;99.90
8979;DHT22;4524;51.364;5.448;2023-02-11T04:21:37;7.50;99.90
8979;DHT22;4524;51.364;5.448;2023-02-11T04:24:06;7.50;99.90
8979;DHT22;4524;51.364;5.448;2023-02-11T04:26:34;7.50;99.90
8979;DHT22;4524;51.364;5.448;2023-02-11T04:29:03;7.50;99.90
8979;DHT22;4524;51.364;5.448;2023-02-11T04:31:31;7.50;99.90
8979;DHT22;4524;51.364;5.448;2023-02-11T04:33:59;7.50;99.90
8979;DHT22;4524;51.364;5.448;2023-02-11T04:36:27;7.50;99.90
8979;DHT22;4524;51.364;5.448;2023-02-11T04:38:55;7.50;99.90
8979;DHT22;4524;51.364;5.448;2023-02-11T04:41:24;7.50;99.90
8979;DHT22;4524;51.364;5.448;2023-02-11T04:43:52;7.50;99.90
8979;DHT22;4524;51.364;5.448;2023-02-11T04:46:20;7.50;99.90
8979;DHT22;4524;51.364;5.448;2023-02-11T04:48:48;7.50;99.90
8979;DHT22;4524;51.364;5.448;2023-02-11T04:51:16;7.50;99.90
8979;DHT22;4524;51.364;5.448;2023-02-11T04:53:44;7.60;99.90
8979;DHT22;4524;51.364;5.448;2023-02-11T04:56:12;7.60;99.90
8979;DHT22;4524;51.364;5.448;2023-02-11T04:58:41;7.50;99.90
8979;DHT22;4524;51.364;5.448;2023-02-11T05:01:11;7.60;99.90
8979;DHT22;4524;51.364;5.448;2023-02-11T05:03:40;7.60;99.90
8979;DHT22;4524;51.364;5.448;2023-02-11T05:06:09;7.60;99.90
8979;DHT22;4524;51.364;5.448;2023-02-11T05:08:38;7.60;99.90
8979;DHT22;4524;51.364;5.448;2023-02-11T05:11:07;7.60;99.90
8979;DHT22;4524;51.364;5.448;2023-02-11T05:13:35;7.60;99.90
8979;DHT22;4524;51.364;5.448;2023-02-11T05:16:05;7.60;99.90
8979;DHT22;4524;51.364;5.448;2023-02-11T05:18:33;7.60;99.90
8979;DHT22;4524;51.364;5.448;2023-02-11T05:21:05;7.60;99.90
8979;DHT22;4524;51.364;5.448;2023-02-11T05:23:33;7.60;99.90
8979;DHT22;4524;51.364;5.448;2023-02-11T05:26:03;7.60;99.90
8979;DHT22;4524;51.364;5.448;2023-02-11T05:28:31;7.60;99.90
8979;DHT22;4524;51.364;5.448;2023-02-11T05:30:59;7.60;99.90
8979;DHT22;4524;51.364;5.448;2023-02-11T05:33:29;7.60;99.90
8979;DHT22;4524;51.364;5.448;2023-02-11T05:35:58;7.60;99.90
8979;DHT22;4524;51.364;5.448;2023-02-11T05:38:26;7.60;99.90
8979;DHT22;4524;51.364;5.448;2023-02-11T05:40:54;7.60;99.90
8979;DHT22;4524;51.364;5.448;2023-02-11T05:43:22;7.60;99.90
8979;DHT22;4524;51.364;5.448;2023-02-11T05:45:50;7.60;99.90
8979;DHT22;4524;51.364;5.448;2023-02-11T05:48:19;7.60;99.90
8979;DHT22;4524;51.364;5.448;2023-02-11T05:50:48;7.60;99.90
8979;DHT22;4524;51.364;5.448;2023-02-11T05:53:16;7.60;99.90
8979;DHT22;4524;51.364;5.448;2023-02-11T05:55:44;7.60;99.90
8979;DHT22;4524;51.364;5.448;2023-02-11T05:58:13;7.60;99.90
8979;DHT22;4524;51.364;5.448;2023-02-11T06:00:40;7.60;99.90
8979;DHT22;4524;51.364;5.448;2023-02-11T06:03:08;7.60;99.90
8979;DHT22;4524;51.364;5.448;2023-02-11T06:05:36;7.60;99.90
8979;DHT22;4524;51.364;5.448;2023-02-11T06:08:06;7.60;99.90
8979;DHT22;4524;51.364;5.448;2023-02-11T06:10:34;7.70;99.90
8979;DHT22;4524;51.364;5.448;2023-02-11T06:13:02;7.70;99.90
8979;DHT22;4524;51.364;5.448;2023-02-11T06:15:30;7.60;99.90
8979;DHT22;4524;51.364;5.448;2023-02-11T06:17:58;7.60;99.90
8979;DHT22;4524;51.364;5.448;2023-02-11T06:20:26;7.60;99.90
8979;DHT22;4524;51.364;5.448;2023-02-11T06:22:54;7.60;99.90
8979;DHT22;4524;51.364;5.448;2023-02-11T06:25:23;7.70;99.90
8979;DHT22;4524;51.364;5.448;2023-02-11T06:27:51;7.70;99.90
8979;DHT22;4524;51.364;5.448;2023-02-11T06:30:19;7.70;99.90
8979;DHT22;4524;51.364;5.448;2023-02-11T06:32:47;7.70;99.90
8979;DHT22;4524;51.364;5.448;2023-02-11T06:35:15;7.60;99.90
8979;DHT22;4524;51.364;5.448;2023-02-11T06:37:43;7.70;99.90
8979;DHT22;4524;51.364;5.448;2023-02-11T06:40:12;7.70;99.90
8979;DHT22;4524;51.364;5.448;2023-02-11T06:42:42;7.70;99.90
8979;DHT22;4524;51.364;5.448;2023-02-11T06:45:10;7.70;99.90
8979;DHT22;4524;51.364;5.448;2023-02-11T06:47:39;7.70;99.90
8979;DHT22;4524;51.364;5.448;2023-02-11T06:50:11;7.70;99.90
8979;DHT22;4524;51.364;5.448;2023-02-11T06:52:39;7.70;99.90
8979;DHT22;4524;51.364;5.448;2023-02-11T06:55:08;7.70;99.90
8979;DHT22;4524;51.364;5.448;2023-02-11T06:57:35;7.80;99.90
8979;DHT22;4524;51.364;5.448;2023-02-11T07:00:06;7.70;99.90
8979;DHT22;4524;51.364;5.448;2023-02-11T07:02:34;7.80;99.90
8979;DHT22;4524;51.364;5.448;2023-02-11T07:05:04;7.70;99.90
8979;DHT22;4524;51.364;5.448;2023-02-11T07:07:32;7.70;99.90
8979;DHT22;4524;51.364;5.448;2023-02-11T07:10:01;7.70;99.90
8979;DHT22;4524;51.364;5.448;2023-02-11T07:12:29;7.80;99.90
8979;DHT22;4524;51.364;5.448;2023-02-11T07:14:58;7.80;99.90
8979;DHT22;4524;51.364;5.448;2023-02-11T07:17:27;7.80;99.90
8979;DHT22;4524;51.364;5.448;2023-02-11T07:19:55;7.80;99.90
8979;DHT22;4524;51.364;5.448;2023-02-11T07:22:23;7.70;99.90
8979;DHT22;4524;51.364;5.448;2023-02-11T07:24:51;7.70;99.90
8979;DHT22;4524;51.364;5.448;2023-02-11T07:27:19;7.70;99.90
8979;DHT22;4524;51.364;5.448;2023-02-11T07:29:47;7.80;99.90
8979;DHT22;4524;51.364;5.448;2023-02-11T07:32:14;7.80;99.90
8979;DHT22;4524;51.364;5.448;2023-02-11T07:34:44;7.90;99.90
8979;DHT22;4524;51.364;5.448;2023-02-11T07:37:13;7.90;99.90
8979;DHT22;4524;51.364;5.448;2023-02-11T07:39:41;7.90;99.90
8979;DHT22;4524;51.364;5.448;2023-02-11T07:42:09;7.90;99.90
8979;DHT22;4524;51.364;5.448;2023-02-11T07:44:37;7.90;99.90
8979;DHT22;4524;51.364;5.448;2023-02-11T07:47:05;8.00;99.90
8979;DHT22;4524;51.364;5.448;2023-02-11T07:49:33;8.00;99.90
8979;DHT22;4524;51.364;5.448;2023-02-11T07:52:03;8.00;99.90
8979;DHT22;4524;51.364;5.448;2023-02-11T07:54:31;8.00;99.90
8979;DHT22;4524;51.364;5.448;2023-02-11T07:56:58;8.00;99.90
8979;DHT22;4524;51.364;5.448;2023-02-11T07:59:26;8.10;99.90
8979;DHT22;4524;51.364;5.448;2023-02-11T08:01:54;8.00;99.90
8979;DHT22;4524;51.364;5.448;2023-02-11T08:04:22;8.00;99.90
8979;DHT22;4524;51.364;5.448;2023-02-11T08:06:50;8.10;99.90
8979;DHT22;4524;51.364;5.448;2023-02-11T08:09:24;8.10;99.90
8979;DHT22;4524;51.364;5.448;2023-02-11T08:11:52;8.10;99.90
8979;DHT22;4524;51.364;5.448;2023-02-11T08:14:20;8.00;99.90
8979;DHT22;4524;51.364;5.448;2023-02-11T08:16:48;8.00;99.90
8979;DHT22;4524;51.364;5.448;2023-02-11T08:19:16;8.00;99.90
8979;DHT22;4524;51.364;5.448;2023-02-11T08:21:44;8.10;99.90
8979;DHT22;4524;51.364;5.448;2023-02-11T08:24:15;8.10;99.90
8979;DHT22;4524;51.364;5.448;2023-02-11T08:26:44;8.10;99.90
8979;DHT22;4524;51.364;5.448;2023-02-11T08:29:15;8.20;99.90
8979;DHT22;4524;51.364;5.448;2023-02-11T08:31:44;8.10;99.90
8979;DHT22;4524;51.364;5.448;2023-02-11T08:34:13;8.20;99.90
8979;DHT22;4524;51.364;5.448;2023-02-11T08:36:45;8.20;99.90
8979;DHT22;4524;51.364;5.448;2023-02-11T08:39:15;8.20;99.90
8979;DHT22;4524;51.364;5.448;2023-02-11T08:41:48;8.20;99.90
8979;DHT22;4524;51.364;5.448;2023-02-11T08:44:18;8.20;99.90
8979;DHT22;4524;51.364;5.448;2023-02-11T08:46:47;8.20;99.90
8979;DHT22;4524;51.364;5.448;2023-02-11T08:49:15;8.20;99.90
8979;DHT22;4524;51.364;5.448;2023-02-11T08:51:43;8.30;99.90
8979;DHT22;4524;51.364;5.448;2023-02-11T08:54:12;8.30;99.90
8979;DHT22;4524;51.364;5.448;2023-02-11T08:56:40;8.30;99.90
8979;DHT22;4524;51.364;5.448;2023-02-11T08:59:12;8.30;99.90
8979;DHT22;4524;51.364;5.448;2023-02-11T09:01:40;8.40;99.90
8979;DHT22;4524;51.364;5.448;2023-02-11T09:04:09;8.30;99.90
8979;DHT22;4524;51.364;5.448;2023-02-11T09:06:38;8.40;99.90
8979;DHT22;4524;51.364;5.448;2023-02-11T09:09:10;8.40;99.90
8979;DHT22;4524;51.364;5.448;2023-02-11T09:11:40;8.40;99.90
8979;DHT22;4524;51.364;5.448;2023-02-11T09:14:15;8.50;99.90
8979;DHT22;4524;51.364;5.448;2023-02-11T09:16:45;8.40;99.90
8979;DHT22;4524;51.364;5.448;2023-02-11T09:19:13;8.40;99.90
8979;DHT22;4524;51.364;5.448;2023-02-11T09:21:41;8.50;99.90
8979;DHT22;4524;51.364;5.448;2023-02-11T09:24:10;8.50;99.90
8979;DHT22;4524;51.364;5.448;2023-02-11T09:26:40;8.50;99.90
8979;DHT22;4524;51.364;5.448;2023-02-11T09:29:08;8.50;99.90
8979;DHT22;4524;51.364;5.448;2023-02-11T09:31:37;8.50;99.90
8979;DHT22;4524;51.364;5.448;2023-02-11T09:34:06;8.50;99.90
8979;DHT22;4524;51.364;5.448;2023-02-11T09:36:35;8.50;99.90
8979;DHT22;4524;51.364;5.448;2023-02-11T09:39:05;8.50;99.90
8979;DHT22;4524;51.364;5.448;2023-02-11T09:42:09;8.60;99.90
8979;DHT22;4524;51.364;5.448;2023-02-11T09:44:43;8.60;99.90
8979;DHT22;4524;51.364;5.448;2023-02-11T09:47:24;8.70;99.90
8979;DHT22;4524;51.364;5.448;2023-02-11T09:49:57;8.70;99.90
8979;DHT22;4524;51.364;5.448;2023-02-11T09:52:32;8.70;99.90
8979;DHT22;4524;51.364;5.448;2023-02-11T09:55:05;8.80;99.90
8979;DHT22;4524;51.364;5.448;2023-02-11T09:57:37;8.80;99.90
8979;DHT22;4524;51.364;5.448;2023-02-11T10:00:16;8.80;99.90
8979;DHT22;4524;51.364;5.448;2023-02-11T10:03:08;8.90;99.90
8979;DHT22;4524;51.364;5.448;2023-02-11T10:05:54;8.90;99.90
8979;DHT22;4524;51.364;5.448;2023-02-11T10:08:32;9.00;99.90
8979;DHT22;4524;51.364;5.448;2023-02-11T10:11:05;9.00;99.90
8979;DHT22;4524;51.364;5.448;2023-02-11T10:13:47;9.00;99.90
8979;DHT22;4524;51.364;5.448;2023-02-11T10:16:34;9.00;99.90
8979;DHT22;4524;51.364;5.448;2023-02-11T10:19:19;9.10;99.90
8979;DHT22;4524;51.364;5.448;2023-02-11T10:21:58;9.10;99.90
8979;DHT22;4524;51.364;5.448;2023-02-11T10:24:30;9.10;99.90
8979;DHT22;4524;51.364;5.448;2023-02-11T10:26:59;9.10;99.90
8979;DHT22;4524;51.364;5.448;2023-02-11T10:29:34;9.20;99.90
8979;DHT22;4524;51.364;5.448;2023-02-11T10:32:06;9.20;99.90
8979;DHT22;4524;51.364;5.448;2023-02-11T10:34:43;9.20;99.90
8979;DHT22;4524;51.364;5.448;2023-02-11T10:37:12;9.30;99.90
8979;DHT22;4524;51.364;5.448;2023-02-11T10:39:41;9.30;99.90
8979;DHT22;4524;51.364;5.448;2023-02-11T10:42:11;9.30;99.90
8979;DHT22;4524;51.364;5.448;2023-02-11T10:44:42;9.30;99.90
8979;DHT22;4524;51.364;5.448;2023-02-11T10:47:19;9.30;99.90
8979;DHT22;4524;51.364;5.448;2023-02-11T10:49:49;9.30;99.90
8979;DHT22;4524;51.364;5.448;2023-02-11T10:52:20;9.30;99.90
8979;DHT22;4524;51.364;5.448;2023-02-11T10:55:01;9.30;99.90
8979;DHT22;4524;51.364;5.448;2023-02-11T10:57:33;9.40;99.90
8979;DHT22;4524;51.364;5.448;2023-02-11T11:00:14;9.40;99.90
8979;DHT22;4524;51.364;5.448;2023-02-11T11:02:52;9.40;99.90
8979;DHT22;4524;51.364;5.448;2023-02-11T11:05:28;9.50;99.90
8979;DHT22;4524;51.364;5.448;2023-02-11T11:07:58;9.40;99.90
8979;DHT22;4524;51.364;5.448;2023-02-11T11:10:36;9.50;99.90
8979;DHT22;4524;51.364;5.448;2023-02-11T11:13:29;9.50;99.90
8979;DHT22;4524;51.364;5.448;2023-02-11T11:16:16;9.60;99.90
8979;DHT22;4524;51.364;5.448;2023-02-11T11:18:46;9.60;99.90
8979;DHT22;4524;51.364;5.448;2023-02-11T11:21:19;9.60;99.90
8979;DHT22;4524;51.364;5.448;2023-02-11T11:23:50;9.60;99.90
8979;DHT22;4524;51.364;5.448;2023-02-11T11:26:19;9.60;99.90
8979;DHT22;4524;51.364;5.448;2023-02-11T11:28:54;9.60;99.90
8979;DHT22;4524;51.364;5.448;2023-02-11T11:31:25;9.60;99.90
8979;DHT22;4524;51.364;5.448;2023-02-11T11:33:55;9.70;99.90
8979;DHT22;4524;51.364;5.448;2023-02-11T11:36:33;9.70;99.90
8979;DHT22;4524;51.364;5.448;2023-02-11T11:39:16;9.70;99.90
8979;DHT22;4524;51.364;5.448;2023-02-11T11:41:55;9.70;99.90
8979;DHT22;4524;51.364;5.448;2023-02-11T11:44:28;9.80;99.90
8979;DHT22;4524;51.364;5.448;2023-02-11T11:47:19;9.80;99.90
8979;DHT22;4524;51.364;5.448;2023-02-11T11:49:55;9.90;99.90
8979;DHT22;4524;51.364;5.448;2023-02-11T11:52:36;9.90;99.90
8979;DHT22;4524;51.364;5.448;2023-02-11T11:55:12;9.90;99.90
8979;DHT22;4524;51.364;5.448;2023-02-11T11:57:42;9.90;99.90
8979;DHT22;4524;51.364;5.448;2023-02-11T12:00:17;9.90;99.90
8979;DHT22;4524;51.364;5.448;2023-02-11T12:03:16;10.00;99.90
8979;DHT22;4524;51.364;5.448;2023-02-11T12:05:53;10.00;99.90
8979;DHT22;4524;51.364;5.448;2023-02-11T12:08:33;10.00;99.90
8979;DHT22;4524;51.364;5.448;2023-02-11T12:11:11;10.00;99.90
8979;DHT22;4524;51.364;5.448;2023-02-11T12:13:52;10.00;99.90
8979;DHT22;4524;51.364;5.448;2023-02-11T12:16:31;10.10;99.90
8979;DHT22;4524;51.364;5.448;2023-02-11T12:19:46;10.10;99.90
8979;DHT22;4524;51.364;5.448;2023-02-11T12:22:24;10.20;99.90
8979;DHT22;4524;51.364;5.448;2023-02-11T12:25:14;10.10;99.90
8979;DHT22;4524;51.364;5.448;2023-02-11T12:27:47;10.20;99.90
8979;DHT22;4524;51.364;5.448;2023-02-11T12:30:31;10.20;99.90
8979;DHT22;4524;51.364;5.448;2023-02-11T12:33:05;10.20;99.90
8979;DHT22;4524;51.364;5.448;2023-02-11T12:35:45;10.20;99.90
8979;DHT22;4524;51.364;5.448;2023-02-11T12:38:32;10.20;99.90
8979;DHT22;4524;51.364;5.448;2023-02-11T12:41:18;10.20;99.90
8979;DHT22;4524;51.364;5.448;2023-02-11T12:44:21;10.30;99.90
8979;DHT22;4524;51.364;5.448;2023-02-11T12:46:59;10.30;99.90
8979;DHT22;4524;51.364;5.448;2023-02-11T12:49:46;10.30;99.90
8979;DHT22;4524;51.364;5.448;2023-02-11T12:52:25;10.30;99.90
8979;DHT22;4524;51.364;5.448;2023-02-11T12:55:02;10.30;99.90
8979;DHT22;4524;51.364;5.448;2023-02-11T12:57:35;10.50;99.90
8979;DHT22;4524;51.364;5.448;2023-02-11T13:00:11;10.50;99.90
8979;DHT22;4524;51.364;5.448;2023-02-11T13:02:46;10.50;99.90
8979;DHT22;4524;51.364;5.448;2023-02-11T13:05:24;10.60;99.90
8979;DHT22;4524;51.364;5.448;2023-02-11T13:07:57;10.60;99.90
8979;DHT22;4524;51.364;5.448;2023-02-11T13:10:32;10.60;99.90
8979;DHT22;4524;51.364;5.448;2023-02-11T13:13:05;10.60;99.90
8979;DHT22;4524;51.364;5.448;2023-02-11T13:15:47;10.60;99.90
8979;DHT22;4524;51.364;5.448;2023-02-11T13:18:41;10.70;99.90
8979;DHT22;4524;51.364;5.448;2023-02-11T13:21:28;10.70;99.90
8979;DHT22;4524;51.364;5.448;2023-02-11T13:24:04;10.80;99.90
8979;DHT22;4524;51.364;5.448;2023-02-11T13:26:41;10.90;99.90
8979;DHT22;4524;51.364;5.448;2023-02-11T13:29:19;10.90;99.90
8979;DHT22;4524;51.364;5.448;2023-02-11T13:32:06;11.00;99.90
8979;DHT22;4524;51.364;5.448;2023-02-11T13:34:54;10.90;99.90
8979;DHT22;4524;51.364;5.448;2023-02-11T13:37:24;11.00;99.90
8979;DHT22;4524;51.364;5.448;2023-02-11T13:39:58;11.00;99.90
8979;DHT22;4524;51.364;5.448;2023-02-11T13:42:27;11.00;99.90
8979;DHT22;4524;51.364;5.448;2023-02-11T13:44:57;11.00;99.90
8979;DHT22;4524;51.364;5.448;2023-02-11T13:47:28;10.90;99.90
8979;DHT22;4524;51.364;5.448;2023-02-11T13:49:57;11.00;99.90
8979;DHT22;4524;51.364;5.448;2023-02-11T13:52:29;11.00;99.90
8979;DHT22;4524;51.364;5.448;2023-02-11T13:55:02;11.10;99.90
8979;DHT22;4524;51.364;5.448;2023-02-11T13:57:36;11.10;99.90
8979;DHT22;4524;51.364;5.448;2023-02-11T14:03:42;11.10;99.90
8979;DHT22;4524;51.364;5.448;2023-02-11T14:07:23;11.10;99.90
8979;DHT22;4524;51.364;5.448;2023-02-11T14:10:49;11.00;99.90
8979;DHT22;4524;51.364;5.448;2023-02-11T14:13:23;11.10;99.90
8979;DHT22;4524;51.364;5.448;2023-02-11T14:16:06;11.10;99.90
8979;DHT22;4524;51.364;5.448;2023-02-11T14:21:21;11.10;99.90
8979;DHT22;4524;51.364;5.448;2023-02-11T14:23:51;11.10;99.90
8979;DHT22;4524;51.364;5.448;2023-02-11T14:26:31;11.10;99.90
8979;DHT22;4524;51.364;5.448;2023-02-11T14:29:06;11.10;99.90
8979;DHT22;4524;51.364;5.448;2023-02-11T14:31:42;11.10;99.90
8979;DHT22;4524;51.364;5.448;2023-02-11T14:34:36;11.10;99.90
8979;DHT22;4524;51.364;5.448;2023-02-11T14:37:16;11.10;99.90
8979;DHT22;4524;51.364;5.448;2023-02-11T14:39:59;11.00;99.90
8979;DHT22;4524;51.364;5.448;2023-02-11T14:42:31;11.10;99.90
8979;DHT22;4524;51.364;5.448;2023-02-11T14:45:03;11.00;99.90
8979;DHT22;4524;51.364;5.448;2023-02-11T14:47:38;11.00;99.90
8979;DHT22;4524;51.364;5.448;2023-02-11T14:50:15;11.00;99.90
8979;DHT22;4524;51.364;5.448;2023-02-11T14:52:44;11.10;99.90
8979;DHT22;4524;51.364;5.448;2023-02-11T14:55:23;11.10;99.90
8979;DHT22;4524;51.364;5.448;2023-02-11T14:58:11;11.00;99.90
8979;DHT22;4524;51.364;5.448;2023-02-11T15:00:50;11.00;99.90
8979;DHT22;4524;51.364;5.448;2023-02-11T15:03:34;10.90;99.90
8979;DHT22;4524;51.364;5.448;2023-02-11T15:06:05;10.90;99.90
8979;DHT22;4524;51.364;5.448;2023-02-11T15:08:34;10.90;99.90
8979;DHT22;4524;51.364;5.448;2023-02-11T15:11:10;10.90;99.90
8979;DHT22;4524;51.364;5.448;2023-02-11T15:13:38;10.80;99.90
8979;DHT22;4524;51.364;5.448;2023-02-11T15:16:14;10.80;99.90
8979;DHT22;4524;51.364;5.448;2023-02-11T15:18:46;10.80;99.90
8979;DHT22;4524;51.364;5.448;2023-02-11T15:21:20;10.80;99.90
8979;DHT22;4524;51.364;5.448;2023-02-11T15:23:54;10.80;99.90
8979;DHT22;4524;51.364;5.448;2023-02-11T15:26:24;10.80;99.90
8979;DHT22;4524;51.364;5.448;2023-02-11T15:28:52;10.70;99.90
8979;DHT22;4524;51.364;5.448;2023-02-11T15:31:23;10.70;99.90
8979;DHT22;4524;51.364;5.448;2023-02-11T15:33:53;10.70;99.90
8979;DHT22;4524;51.364;5.448;2023-02-11T15:36:22;10.70;99.90
8979;DHT22;4524;51.364;5.448;2023-02-11T15:39:16;10.60;99.90
8979;DHT22;4524;51.364;5.448;2023-02-11T15:41:46;10.70;99.90
8979;DHT22;4524;51.364;5.448;2023-02-11T15:44:28;10.60;99.90
8979;DHT22;4524;51.364;5.448;2023-02-11T15:46:56;10.60;99.90
8979;DHT22;4524;51.364;5.448;2023-02-11T15:49:25;10.60;99.90
8979;DHT22;4524;51.364;5.448;2023-02-11T15:51:55;10.50;99.90
8979;DHT22;4524;51.364;5.448;2023-02-11T15:54:27;10.50;99.90
8979;DHT22;4524;51.364;5.448;2023-02-11T15:57:02;10.50;99.90
8979;DHT22;4524;51.364;5.448;2023-02-11T15:59:33;10.50;99.90
8979;DHT22;4524;51.364;5.448;2023-02-11T16:02:12;10.40;99.90
8979;DHT22;4524;51.364;5.448;2023-02-11T16:04:48;10.40;99.90
8979;DHT22;4524;51.364;5.448;2023-02-11T16:07:38;10.40;99.90
8979;DHT22;4524;51.364;5.448;2023-02-11T16:10:18;10.40;99.90
8979;DHT22;4524;51.364;5.448;2023-02-11T16:12:53;10.40;99.90
8979;DHT22;4524;51.364;5.448;2023-02-11T16:15:44;10.40;99.90
8979;DHT22;4524;51.364;5.448;2023-02-11T16:18:25;10.40;99.90
8979;DHT22;4524;51.364;5.448;2023-02-11T16:21:06;10.30;99.90
8979;DHT22;4524;51.364;5.448;2023-02-11T16:23:39;10.30;99.90
8979;DHT22;4524;51.364;5.448;2023-02-11T16:26:11;10.30;99.90
8979;DHT22;4524;51.364;5.448;2023-02-11T16:28:47;10.30;99.90
8979;DHT22;4524;51.364;5.448;2023-02-11T16:31:16;10.20;99.90
8979;DHT22;4524;51.364;5.448;2023-02-11T16:33:44;10.10;99.90
8979;DHT22;4524;51.364;5.448;2023-02-11T16:36:13;10.20;99.90
8979;DHT22;4524;51.364;5.448;2023-02-11T16:38:42;10.20;99.90
8979;DHT22;4524;51.364;5.448;2023-02-11T16:41:10;10.20;99.90
8979;DHT22;4524;51.364;5.448;2023-02-11T16:43:38;10.20;99.90
8979;DHT22;4524;51.364;5.448;2023-02-11T16:46:10;10.10;99.90
8979;DHT22;4524;51.364;5.448;2023-02-11T16:48:41;10.10;99.90
8979;DHT22;4524;51.364;5.448;2023-02-11T16:51:10;10.10;99.90
8979;DHT22;4524;51.364;5.448;2023-02-11T16:53:39;10.10;99.90
8979;DHT22;4524;51.364;5.448;2023-02-11T16:56:13;10.00;99.90
8979;DHT22;4524;51.364;5.448;2023-02-11T16:58:41;10.00;99.90
8979;DHT22;4524;51.364;5.448;2023-02-11T17:01:11;10.00;99.90
8979;DHT22;4524;51.364;5.448;2023-02-11T17:03:40;10.00;99.90
8979;DHT22;4524;51.364;5.448;2023-02-11T17:06:10;10.00;99.90